Main page
METAR-TAF:

METAR-TAF

Airports :

Brussels, Belgium

Brussels Airport

latitude: 50-54N, longitude: 004-32E, elevation: 55 m

Current weather observation

The report was made 21 minutes ago, at 21:50 UTC
Wind 4 kt from the Northeast
Temperature 4°C
Humidity 93%
Pressure 1024 hPa
Visibility 10 km or more
Few clouds at a height of 3600 ft

METAR: EBBR 022150Z 04004KT 9999 FEW036 04/03 Q1024 NOSIG

Time: 23:11 (22:11 UTC)

Forecast

The report was made 5 hours and 1 minutes ago, at 17:10 UTC
Forecast valid from 02 at 18 UTC to 03 at 24 UTC
Wind 3 kt from the Northeast
Visibility: 8000 m
Few clouds at a height of 1500 ft
Broken clouds at a height of 3500 ft
Probability 40% :
Temporary
from 03 at 01 UTC to 03 at 10 UTC
Visibility: 0500 m
at a height of 200 ft
fog
Probability 40%
from 03 at 14 UTC to 03 at 24 UTC
Visibility: 0500 m
Broken clouds at a height of 300 ft
fog

TAF: EBBR 021710Z 0218/0324 05003KT 8000 FEW015 BKN035 PROB40 TEMPO 0301/0310 0500 FG VV002 PROB40 0314/0324 0500 FG BKN003

Weather observations and forecasts of more than 4000 airports (METAR and TAF reports).

The available stations are represented by yellow and red dots on the map.

Hover mouse over dot to see the name of the station.

Then click to see weather observations and forecasts.

To change the map : click on the green buttons with a black cross to zoom in, on the green button with a dash to zoom out, or on the green arrows for adjacent maps.


METAR-TAF: